sensor_id;sensor_type;location;lat;lon;timestamp;temperature;humidity
13052;DHT22;6592;47.484;9.726;2023-09-30T00:02:27;20.80;99.90
13052;DHT22;6592;47.484;9.726;2023-09-30T00:04:57;20.80;99.90
13052;DHT22;6592;47.484;9.726;2023-09-30T00:07:25;20.80;99.90
13052;DHT22;6592;47.484;9.726;2023-09-30T00:09:53;20.70;99.90
13052;DHT22;6592;47.484;9.726;2023-09-30T00:12:21;20.70;99.90
13052;DHT22;6592;47.484;9.726;2023-09-30T00:14:51;20.70;99.90
13052;DHT22;6592;47.484;9.726;2023-09-30T00:17:20;20.70;99.90
13052;DHT22;6592;47.484;9.726;2023-09-30T00:19:48;20.60;99.90
13052;DHT22;6592;47.484;9.726;2023-09-30T00:22:17;20.70;99.90
13052;DHT22;6592;47.484;9.726;2023-09-30T00:24:45;20.60;99.90
13052;DHT22;6592;47.484;9.726;2023-09-30T00:27:14;20.70;99.90
13052;DHT22;6592;47.484;9.726;2023-09-30T00:29:42;20.70;99.90
13052;DHT22;6592;47.484;9.726;2023-09-30T00:32:12;20.70;99.90
13052;DHT22;6592;47.484;9.726;2023-09-30T00:34:40;20.70;99.90
13052;DHT22;6592;47.484;9.726;2023-09-30T00:37:09;20.70;99.90
13052;DHT22;6592;47.484;9.726;2023-09-30T00:39:38;20.60;99.90
13052;DHT22;6592;47.484;9.726;2023-09-30T00:42:06;20.60;99.90
13052;DHT22;6592;47.484;9.726;2023-09-30T00:44:34;20.60;99.90
13052;DHT22;6592;47.484;9.726;2023-09-30T00:47:02;20.60;99.90
13052;DHT22;6592;47.484;9.726;2023-09-30T00:49:33;20.60;99.90
13052;DHT22;6592;47.484;9.726;2023-09-30T00:52:01;20.60;99.90
13052;DHT22;6592;47.484;9.726;2023-09-30T00:54:31;20.60;99.90
13052;DHT22;6592;47.484;9.726;2023-09-30T00:56:59;20.60;99.90
13052;DHT22;6592;47.484;9.726;2023-09-30T00:59:29;20.60;99.90
13052;DHT22;6592;47.484;9.726;2023-09-30T01:02:00;20.60;99.90
13052;DHT22;6592;47.484;9.726;2023-09-30T01:04:28;20.50;99.90
13052;DHT22;6592;47.484;9.726;2023-09-30T01:06:58;20.50;99.90
13052;DHT22;6592;47.484;9.726;2023-09-30T01:09:27;20.40;99.90
13052;DHT22;6592;47.484;9.726;2023-09-30T01:11:55;20.30;99.90
13052;DHT22;6592;47.484;9.726;2023-09-30T01:14:24;20.20;99.90
13052;DHT22;6592;47.484;9.726;2023-09-30T01:16:53;20.10;99.90
13052;DHT22;6592;47.484;9.726;2023-09-30T01:19:21;20.10;99.90
13052;DHT22;6592;47.484;9.726;2023-09-30T01:21:53;20.10;99.90
13052;DHT22;6592;47.484;9.726;2023-09-30T01:24:23;20.00;99.90
13052;DHT22;6592;47.484;9.726;2023-09-30T01:26:51;20.00;99.90
13052;DHT22;6592;47.484;9.726;2023-09-30T01:29:20;19.90;99.90
13052;DHT22;6592;47.484;9.726;2023-09-30T01:31:49;19.80;99.90
13052;DHT22;6592;47.484;9.726;2023-09-30T01:34:17;19.80;99.90
13052;DHT22;6592;47.484;9.726;2023-09-30T01:36:45;19.80;99.90
13052;DHT22;6592;47.484;9.726;2023-09-30T01:39:15;19.80;99.90
13052;DHT22;6592;47.484;9.726;2023-09-30T01:41:43;19.80;99.90
13052;DHT22;6592;47.484;9.726;2023-09-30T01:44:12;19.70;99.90
13052;DHT22;6592;47.484;9.726;2023-09-30T01:46:40;19.70;99.90
13052;DHT22;6592;47.484;9.726;2023-09-30T01:49:08;19.70;99.90
13052;DHT22;6592;47.484;9.726;2023-09-30T01:51:36;19.70;99.90
13052;DHT22;6592;47.484;9.726;2023-09-30T01:54:05;19.60;99.90
13052;DHT22;6592;47.484;9.726;2023-09-30T01:56:35;19.60;99.90
13052;DHT22;6592;47.484;9.726;2023-09-30T01:59:04;19.60;99.90
13052;DHT22;6592;47.484;9.726;2023-09-30T02:01:32;19.60;99.90
13052;DHT22;6592;47.484;9.726;2023-09-30T02:04:00;19.60;99.90
13052;DHT22;6592;47.484;9.726;2023-09-30T02:06:28;19.60;99.90
13052;DHT22;6592;47.484;9.726;2023-09-30T02:08:57;19.50;99.90
13052;DHT22;6592;47.484;9.726;2023-09-30T02:11:25;19.50;99.90
13052;DHT22;6592;47.484;9.726;2023-09-30T02:13:55;19.50;99.90
13052;DHT22;6592;47.484;9.726;2023-09-30T02:16:24;19.40;99.90
13052;DHT22;6592;47.484;9.726;2023-09-30T02:18:52;19.40;99.90
13052;DHT22;6592;47.484;9.726;2023-09-30T02:21:21;19.30;99.90
13052;DHT22;6592;47.484;9.726;2023-09-30T02:23:49;19.30;99.90
13052;DHT22;6592;47.484;9.726;2023-09-30T02:26:22;19.30;99.90
13052;DHT22;6592;47.484;9.726;2023-09-30T02:28:52;19.30;99.90
13052;DHT22;6592;47.484;9.726;2023-09-30T02:31:22;19.30;99.90
13052;DHT22;6592;47.484;9.726;2023-09-30T02:33:51;19.30;99.90
13052;DHT22;6592;47.484;9.726;2023-09-30T02:36:19;19.30;99.90
13052;DHT22;6592;47.484;9.726;2023-09-30T02:38:47;19.20;99.90
13052;DHT22;6592;47.484;9.726;2023-09-30T02:41:16;19.20;99.90
13052;DHT22;6592;47.484;9.726;2023-09-30T02:43:44;19.10;99.90
13052;DHT22;6592;47.484;9.726;2023-09-30T02:46:13;19.10;99.90
13052;DHT22;6592;47.484;9.726;2023-09-30T02:48:43;19.00;99.90
13052;DHT22;6592;47.484;9.726;2023-09-30T02:51:12;18.90;99.90
13052;DHT22;6592;47.484;9.726;2023-09-30T02:53:40;18.90;99.90
13052;DHT22;6592;47.484;9.726;2023-09-30T02:56:08;18.80;99.90
13052;DHT22;6592;47.484;9.726;2023-09-30T02:58:36;18.70;99.90
13052;DHT22;6592;47.484;9.726;2023-09-30T03:01:07;18.70;99.90
13052;DHT22;6592;47.484;9.726;2023-09-30T03:03:37;18.60;99.90
13052;DHT22;6592;47.484;9.726;2023-09-30T03:06:08;18.60;99.90
13052;DHT22;6592;47.484;9.726;2023-09-30T03:08:37;18.60;99.90
13052;DHT22;6592;47.484;9.726;2023-09-30T03:11:05;18.50;99.90
13052;DHT22;6592;47.484;9.726;2023-09-30T03:13:34;18.50;99.90
13052;DHT22;6592;47.484;9.726;2023-09-30T03:16:02;18.50;99.90
13052;DHT22;6592;47.484;9.726;2023-09-30T03:18:31;18.50;99.90
13052;DHT22;6592;47.484;9.726;2023-09-30T03:21:01;18.50;99.90
13052;DHT22;6592;47.484;9.726;2023-09-30T03:23:36;18.40;99.90
13052;DHT22;6592;47.484;9.726;2023-09-30T03:26:05;18.30;99.90
13052;DHT22;6592;47.484;9.726;2023-09-30T03:28:37;18.30;99.90
13052;DHT22;6592;47.484;9.726;2023-09-30T03:31:05;18.30;99.90
13052;DHT22;6592;47.484;9.726;2023-09-30T03:33:35;18.30;99.90
13052;DHT22;6592;47.484;9.726;2023-09-30T03:36:03;18.20;99.90
13052;DHT22;6592;47.484;9.726;2023-09-30T03:38:31;18.20;99.90
13052;DHT22;6592;47.484;9.726;2023-09-30T03:41:01;18.10;99.90
13052;DHT22;6592;47.484;9.726;2023-09-30T03:43:30;18.10;99.90
13052;DHT22;6592;47.484;9.726;2023-09-30T03:45:58;18.10;99.90
13052;DHT22;6592;47.484;9.726;2023-09-30T03:48:27;18.10;99.90
13052;DHT22;6592;47.484;9.726;2023-09-30T03:50:56;18.10;99.90
13052;DHT22;6592;47.484;9.726;2023-09-30T03:53:24;18.10;99.90
13052;DHT22;6592;47.484;9.726;2023-09-30T03:55:53;18.10;99.90
13052;DHT22;6592;47.484;9.726;2023-09-30T03:58:23;18.10;99.90
13052;DHT22;6592;47.484;9.726;2023-09-30T04:00:51;18.20;99.90
13052;DHT22;6592;47.484;9.726;2023-09-30T04:03:20;18.20;99.90
13052;DHT22;6592;47.484;9.726;2023-09-30T04:05:49;18.20;99.90
13052;DHT22;6592;47.484;9.726;2023-09-30T04:08:17;18.20;99.90
13052;DHT22;6592;47.484;9.726;2023-09-30T04:10:46;18.20;99.90
13052;DHT22;6592;47.484;9.726;2023-09-30T04:13:14;18.30;99.90
13052;DHT22;6592;47.484;9.726;2023-09-30T04:15:45;18.30;99.90
13052;DHT22;6592;47.484;9.726;2023-09-30T04:18:15;18.30;99.90
13052;DHT22;6592;47.484;9.726;2023-09-30T04:20:47;18.30;99.90
13052;DHT22;6592;47.484;9.726;2023-09-30T04:23:15;18.30;99.90
13052;DHT22;6592;47.484;9.726;2023-09-30T04:25:43;18.30;99.90
13052;DHT22;6592;47.484;9.726;2023-09-30T04:28:11;18.20;99.90
13052;DHT22;6592;47.484;9.726;2023-09-30T04:30:40;18.20;99.90
13052;DHT22;6592;47.484;9.726;2023-09-30T04:33:10;18.10;99.90
13052;DHT22;6592;47.484;9.726;2023-09-30T04:35:40;18.10;99.90
13052;DHT22;6592;47.484;9.726;2023-09-30T04:38:08;18.10;99.90
13052;DHT22;6592;47.484;9.726;2023-09-30T04:40:37;18.10;99.90
13052;DHT22;6592;47.484;9.726;2023-09-30T04:43:06;18.10;99.90
13052;DHT22;6592;47.484;9.726;2023-09-30T04:45:34;18.10;99.90
13052;DHT22;6592;47.484;9.726;2023-09-30T04:48:03;18.10;99.90
13052;DHT22;6592;47.484;9.726;2023-09-30T04:50:32;18.00;99.90
13052;DHT22;6592;47.484;9.726;2023-09-30T04:53:01;18.00;99.90
13052;DHT22;6592;47.484;9.726;2023-09-30T04:55:29;18.00;99.90
13052;DHT22;6592;47.484;9.726;2023-09-30T04:57:57;17.90;99.90
13052;DHT22;6592;47.484;9.726;2023-09-30T05:00:25;17.90;99.90
13052;DHT22;6592;47.484;9.726;2023-09-30T05:02:55;17.90;99.90
13052;DHT22;6592;47.484;9.726;2023-09-30T05:05:26;17.80;99.90
13052;DHT22;6592;47.484;9.726;2023-09-30T05:07:56;17.80;99.90
13052;DHT22;6592;47.484;9.726;2023-09-30T05:10:25;17.80;99.90
13052;DHT22;6592;47.484;9.726;2023-09-30T05:12:55;17.80;99.90
13052;DHT22;6592;47.484;9.726;2023-09-30T05:15:24;17.80;99.90
13052;DHT22;6592;47.484;9.726;2023-09-30T05:17:52;17.90;99.90
13052;DHT22;6592;47.484;9.726;2023-09-30T05:20:20;17.90;99.90
13052;DHT22;6592;47.484;9.726;2023-09-30T05:22:49;17.90;99.90
13052;DHT22;6592;47.484;9.726;2023-09-30T05:25:19;18.00;99.90
13052;DHT22;6592;47.484;9.726;2023-09-30T05:27:51;18.00;99.90
13052;DHT22;6592;47.484;9.726;2023-09-30T05:30:20;18.00;99.90
13052;DHT22;6592;47.484;9.726;2023-09-30T05:32:48;18.00;99.90
13052;DHT22;6592;47.484;9.726;2023-09-30T05:35:19;18.00;99.90
13052;DHT22;6592;47.484;9.726;2023-09-30T05:37:49;17.90;99.90
13052;DHT22;6592;47.484;9.726;2023-09-30T05:40:21;17.90;99.90
13052;DHT22;6592;47.484;9.726;2023-09-30T05:42:52;18.00;99.90
13052;DHT22;6592;47.484;9.726;2023-09-30T05:45:22;18.00;99.90
13052;DHT22;6592;47.484;9.726;2023-09-30T05:47:53;18.00;99.90
13052;DHT22;6592;47.484;9.726;2023-09-30T05:50:23;18.10;99.90
13052;DHT22;6592;47.484;9.726;2023-09-30T05:52:54;18.10;99.90
13052;DHT22;6592;47.484;9.726;2023-09-30T05:55:25;18.10;99.90
13052;DHT22;6592;47.484;9.726;2023-09-30T05:57:53;18.20;99.90
13052;DHT22;6592;47.484;9.726;2023-09-30T06:00:23;18.20;99.90
13052;DHT22;6592;47.484;9.726;2023-09-30T06:02:56;18.30;99.90
13052;DHT22;6592;47.484;9.726;2023-09-30T06:05:24;18.30;99.90
13052;DHT22;6592;47.484;9.726;2023-09-30T06:07:56;18.30;99.90
13052;DHT22;6592;47.484;9.726;2023-09-30T06:10:26;18.30;99.90
13052;DHT22;6592;47.484;9.726;2023-09-30T06:12:54;18.40;99.90
13052;DHT22;6592;47.484;9.726;2023-09-30T06:15:23;18.40;99.90
13052;DHT22;6592;47.484;9.726;2023-09-30T06:17:55;18.40;99.90
13052;DHT22;6592;47.484;9.726;2023-09-30T06:20:24;18.50;99.90
13052;DHT22;6592;47.484;9.726;2023-09-30T06:22:54;18.50;99.90
13052;DHT22;6592;47.484;9.726;2023-09-30T06:25:23;18.50;99.90
13052;DHT22;6592;47.484;9.726;2023-09-30T06:27:54;18.50;99.90
13052;DHT22;6592;47.484;9.726;2023-09-30T06:30:22;18.60;99.90
13052;DHT22;6592;47.484;9.726;2023-09-30T06:32:57;18.70;99.90
13052;DHT22;6592;47.484;9.726;2023-09-30T06:35:28;18.70;99.90
13052;DHT22;6592;47.484;9.726;2023-09-30T06:37:57;18.80;99.90
13052;DHT22;6592;47.484;9.726;2023-09-30T06:40:26;18.90;99.90
13052;DHT22;6592;47.484;9.726;2023-09-30T06:42:55;19.00;99.90
13052;DHT22;6592;47.484;9.726;2023-09-30T06:45:25;19.10;99.90
13052;DHT22;6592;47.484;9.726;2023-09-30T06:47:53;19.30;99.90
13052;DHT22;6592;47.484;9.726;2023-09-30T06:50:22;19.40;99.90
13052;DHT22;6592;47.484;9.726;2023-09-30T06:52:50;19.40;99.90
13052;DHT22;6592;47.484;9.726;2023-09-30T06:55:19;19.50;99.90
13052;DHT22;6592;47.484;9.726;2023-09-30T06:57:47;19.50;99.90
13052;DHT22;6592;47.484;9.726;2023-09-30T07:00:17;19.40;99.90
13052;DHT22;6592;47.484;9.726;2023-09-30T07:02:45;19.40;99.90
13052;DHT22;6592;47.484;9.726;2023-09-30T07:05:15;19.40;99.90
13052;DHT22;6592;47.484;9.726;2023-09-30T07:07:43;19.60;99.90
13052;DHT22;6592;47.484;9.726;2023-09-30T07:10:12;19.70;99.90
13052;DHT22;6592;47.484;9.726;2023-09-30T07:12:41;19.70;99.90
13052;DHT22;6592;47.484;9.726;2023-09-30T07:15:10;19.80;99.90
13052;DHT22;6592;47.484;9.726;2023-09-30T07:17:42;19.90;99.90
13052;DHT22;6592;47.484;9.726;2023-09-30T07:20:11;19.90;99.90
13052;DHT22;6592;47.484;9.726;2023-09-30T07:22:40;20.10;99.90
13052;DHT22;6592;47.484;9.726;2023-09-30T07:25:25;20.40;99.90
13052;DHT22;6592;47.484;9.726;2023-09-30T07:27:53;20.90;99.90
13052;DHT22;6592;47.484;9.726;2023-09-30T07:30:21;21.40;99.90
13052;DHT22;6592;47.484;9.726;2023-09-30T07:32:51;21.50;99.90
13052;DHT22;6592;47.484;9.726;2023-09-30T07:35:19;21.70;99.90
13052;DHT22;6592;47.484;9.726;2023-09-30T07:37:48;21.80;99.90
13052;DHT22;6592;47.484;9.726;2023-09-30T07:40:20;21.70;99.90
13052;DHT22;6592;47.484;9.726;2023-09-30T07:42:49;21.50;99.90
13052;DHT22;6592;47.484;9.726;2023-09-30T07:45:18;21.40;99.90
13052;DHT22;6592;47.484;9.726;2023-09-30T07:47:48;21.50;99.90
13052;DHT22;6592;47.484;9.726;2023-09-30T07:50:19;21.50;99.90
13052;DHT22;6592;47.484;9.726;2023-09-30T07:52:47;21.70;99.90
13052;DHT22;6592;47.484;9.726;2023-09-30T07:55:16;21.90;99.90
13052;DHT22;6592;47.484;9.726;2023-09-30T07:57:44;22.00;99.90
13052;DHT22;6592;47.484;9.726;2023-09-30T08:00:14;22.30;99.90
13052;DHT22;6592;47.484;9.726;2023-09-30T08:02:43;22.50;99.90
13052;DHT22;6592;47.484;9.726;2023-09-30T08:05:12;22.80;99.90
13052;DHT22;6592;47.484;9.726;2023-09-30T08:07:42;23.10;99.90
13052;DHT22;6592;47.484;9.726;2023-09-30T08:10:10;23.50;99.90
13052;DHT22;6592;47.484;9.726;2023-09-30T08:12:41;23.80;99.90
13052;DHT22;6592;47.484;9.726;2023-09-30T08:15:11;24.20;99.90
13052;DHT22;6592;47.484;9.726;2023-09-30T08:17:40;24.60;99.90
13052;DHT22;6592;47.484;9.726;2023-09-30T08:20:09;24.80;99.90
13052;DHT22;6592;47.484;9.726;2023-09-30T08:22:38;24.80;99.90
13052;DHT22;6592;47.484;9.726;2023-09-30T08:25:08;24.70;99.90
13052;DHT22;6592;47.484;9.726;2023-09-30T08:27:37;25.10;99.90
13052;DHT22;6592;47.484;9.726;2023-09-30T08:30:07;25.30;99.90
13052;DHT22;6592;47.484;9.726;2023-09-30T08:32:35;24.90;99.90
13052;DHT22;6592;47.484;9.726;2023-09-30T08:35:04;24.80;99.90
13052;DHT22;6592;47.484;9.726;2023-09-30T08:37:33;24.90;99.90
13052;DHT22;6592;47.484;9.726;2023-09-30T08:40:03;25.00;99.90
13052;DHT22;6592;47.484;9.726;2023-09-30T08:42:34;25.00;99.90
13052;DHT22;6592;47.484;9.726;2023-09-30T08:45:04;24.70;99.90
13052;DHT22;6592;47.484;9.726;2023-09-30T08:47:33;24.40;99.90
13052;DHT22;6592;47.484;9.726;2023-09-30T08:50:05;24.10;99.90
13052;DHT22;6592;47.484;9.726;2023-09-30T08:52:35;24.00;99.90
13052;DHT22;6592;47.484;9.726;2023-09-30T08:55:07;24.30;99.90
13052;DHT22;6592;47.484;9.726;2023-09-30T08:57:39;24.60;99.90
13052;DHT22;6592;47.484;9.726;2023-09-30T09:00:09;24.90;99.90
13052;DHT22;6592;47.484;9.726;2023-09-30T09:02:40;25.10;99.90
13052;DHT22;6592;47.484;9.726;2023-09-30T09:05:09;25.40;99.90
13052;DHT22;6592;47.484;9.726;2023-09-30T09:07:38;25.70;99.90
13052;DHT22;6592;47.484;9.726;2023-09-30T09:10:08;25.80;99.90
13052;DHT22;6592;47.484;9.726;2023-09-30T09:12:39;26.20;99.90
13052;DHT22;6592;47.484;9.726;2023-09-30T09:15:23;26.70;99.90
13052;DHT22;6592;47.484;9.726;2023-09-30T09:17:52;27.80;99.90
13052;DHT22;6592;47.484;9.726;2023-09-30T09:20:22;29.30;99.90
13052;DHT22;6592;47.484;9.726;2023-09-30T09:22:52;31.10;99.90
13052;DHT22;6592;47.484;9.726;2023-09-30T09:25:22;32.70;99.90
13052;DHT22;6592;47.484;9.726;2023-09-30T09:27:53;32.90;99.90
13052;DHT22;6592;47.484;9.726;2023-09-30T09:30:23;33.90;99.90
13052;DHT22;6592;47.484;9.726;2023-09-30T09:33:02;34.90;99.60
13052;DHT22;6592;47.484;9.726;2023-09-30T09:35:33;35.90;95.90
13052;DHT22;6592;47.484;9.726;2023-09-30T09:38:03;36.80;93.40
13052;DHT22;6592;47.484;9.726;2023-09-30T09:40:32;37.60;90.80
13052;DHT22;6592;47.484;9.726;2023-09-30T09:43:03;38.00;81.20
13052;DHT22;6592;47.484;9.726;2023-09-30T09:45:34;38.60;77.50
13052;DHT22;6592;47.484;9.726;2023-09-30T09:48:03;39.20;75.90
13052;DHT22;6592;47.484;9.726;2023-09-30T09:50:33;39.90;72.50
13052;DHT22;6592;47.484;9.726;2023-09-30T09:53:04;40.20;66.90
13052;DHT22;6592;47.484;9.726;2023-09-30T09:55:33;40.10;65.30
13052;DHT22;6592;47.484;9.726;2023-09-30T09:58:03;39.50;62.60
13052;DHT22;6592;47.484;9.726;2023-09-30T10:00:32;39.10;62.30
13052;DHT22;6592;47.484;9.726;2023-09-30T10:03:03;38.10;64.70
13052;DHT22;6592;47.484;9.726;2023-09-30T10:05:32;38.20;66.30
13052;DHT22;6592;47.484;9.726;2023-09-30T10:08:03;38.00;64.40
13052;DHT22;6592;47.484;9.726;2023-09-30T10:10:36;38.30;62.70
13052;DHT22;6592;47.484;9.726;2023-09-30T10:13:06;38.20;59.70
13052;DHT22;6592;47.484;9.726;2023-09-30T10:15:37;38.00;61.20
13052;DHT22;6592;47.484;9.726;2023-09-30T10:18:09;37.60;61.20
13052;DHT22;6592;47.484;9.726;2023-09-30T10:20:43;37.00;62.40
13052;DHT22;6592;47.484;9.726;2023-09-30T10:23:24;36.70;63.70
13052;DHT22;6592;47.484;9.726;2023-09-30T10:26:14;36.30;65.60
13052;DHT22;6592;47.484;9.726;2023-09-30T10:28:47;36.30;65.20
13052;DHT22;6592;47.484;9.726;2023-09-30T10:31:18;35.70;66.40
13052;DHT22;6592;47.484;9.726;2023-09-30T10:34:21;35.30;66.80
13052;DHT22;6592;47.484;9.726;2023-09-30T10:36:50;35.00;66.80
13052;DHT22;6592;47.484;9.726;2023-09-30T10:39:52;35.00;69.50
13052;DHT22;6592;47.484;9.726;2023-09-30T10:42:44;35.30;67.70
13052;DHT22;6592;47.484;9.726;2023-09-30T10:45:45;35.80;69.80
13052;DHT22;6592;47.484;9.726;2023-09-30T10:48:37;36.30;65.60
13052;DHT22;6592;47.484;9.726;2023-09-30T10:51:14;37.30;65.00
13052;DHT22;6592;47.484;9.726;2023-09-30T10:53:44;37.90;64.10
13052;DHT22;6592;47.484;9.726;2023-09-30T10:56:12;38.00;62.50
13052;DHT22;6592;47.484;9.726;2023-09-30T10:58:45;38.30;62.30
13052;DHT22;6592;47.484;9.726;2023-09-30T11:01:16;38.50;59.90
13052;DHT22;6592;47.484;9.726;2023-09-30T11:03:45;39.30;61.50
13052;DHT22;6592;47.484;9.726;2023-09-30T11:06:16;39.50;60.20
13052;DHT22;6592;47.484;9.726;2023-09-30T11:08:51;39.30;58.50
13052;DHT22;6592;47.484;9.726;2023-09-30T11:11:19;38.60;58.70
13052;DHT22;6592;47.484;9.726;2023-09-30T11:13:59;39.10;58.60
13052;DHT22;6592;47.484;9.726;2023-09-30T11:16:28;38.80;59.00
13052;DHT22;6592;47.484;9.726;2023-09-30T11:18:57;39.20;58.10
13052;DHT22;6592;47.484;9.726;2023-09-30T11:21:25;39.10;58.70
13052;DHT22;6592;47.484;9.726;2023-09-30T11:23:54;39.20;57.80
13052;DHT22;6592;47.484;9.726;2023-09-30T11:26:29;38.90;57.70
13052;DHT22;6592;47.484;9.726;2023-09-30T11:29:05;38.80;57.20
13052;DHT22;6592;47.484;9.726;2023-09-30T11:31:37;38.90;57.50
13052;DHT22;6592;47.484;9.726;2023-09-30T11:34:05;39.00;56.80
13052;DHT22;6592;47.484;9.726;2023-09-30T11:36:35;38.50;57.10
13052;DHT22;6592;47.484;9.726;2023-09-30T11:39:04;38.70;57.40
13052;DHT22;6592;47.484;9.726;2023-09-30T11:41:33;38.80;57.40
13052;DHT22;6592;47.484;9.726;2023-09-30T11:44:06;38.60;56.50
13052;DHT22;6592;47.484;9.726;2023-09-30T11:46:51;39.00;57.80
13052;DHT22;6592;47.484;9.726;2023-09-30T11:49:26;38.90;56.40
13052;DHT22;6592;47.484;9.726;2023-09-30T11:51:55;38.70;56.20
13052;DHT22;6592;47.484;9.726;2023-09-30T11:54:28;38.20;57.20
13052;DHT22;6592;47.484;9.726;2023-09-30T11:56:57;38.20;57.40
13052;DHT22;6592;47.484;9.726;2023-09-30T11:59:26;38.00;57.40
13052;DHT22;6592;47.484;9.726;2023-09-30T12:01:56;37.70;57.10
13052;DHT22;6592;47.484;9.726;2023-09-30T12:04:41;37.70;58.10
13052;DHT22;6592;47.484;9.726;2023-09-30T12:07:11;37.90;58.00
13052;DHT22;6592;47.484;9.726;2023-09-30T12:09:39;38.10;58.00
13052;DHT22;6592;47.484;9.726;2023-09-30T12:12:08;38.20;58.40
13052;DHT22;6592;47.484;9.726;2023-09-30T12:14:38;38.30;58.70
13052;DHT22;6592;47.484;9.726;2023-09-30T12:17:08;38.20;58.70
13052;DHT22;6592;47.484;9.726;2023-09-30T12:19:39;38.10;57.50
13052;DHT22;6592;47.484;9.726;2023-09-30T12:22:09;38.40;57.30
13052;DHT22;6592;47.484;9.726;2023-09-30T12:24:38;38.30;56.90
13052;DHT22;6592;47.484;9.726;2023-09-30T12:27:07;38.00;57.00
13052;DHT22;6592;47.484;9.726;2023-09-30T12:29:36;37.90;57.30
13052;DHT22;6592;47.484;9.726;2023-09-30T12:32:07;37.20;56.60
13052;DHT22;6592;47.484;9.726;2023-09-30T12:34:36;37.10;58.30
13052;DHT22;6592;47.484;9.726;2023-09-30T12:37:05;36.70;57.80
13052;DHT22;6592;47.484;9.726;2023-09-30T12:39:34;36.30;58.40
13052;DHT22;6592;47.484;9.726;2023-09-30T12:42:03;35.30;58.90
13052;DHT22;6592;47.484;9.726;2023-09-30T12:44:36;35.00;60.00
13052;DHT22;6592;47.484;9.726;2023-09-30T12:47:04;35.00;60.60
13052;DHT22;6592;47.484;9.726;2023-09-30T12:49:34;34.70;61.80
13052;DHT22;6592;47.484;9.726;2023-09-30T12:52:03;34.80;62.20
13052;DHT22;6592;47.484;9.726;2023-09-30T12:54:32;34.90;61.30
13052;DHT22;6592;47.484;9.726;2023-09-30T12:57:01;35.00;61.30
13052;DHT22;6592;47.484;9.726;2023-09-30T12:59:29;35.10;61.60
13052;DHT22;6592;47.484;9.726;2023-09-30T13:01:57;35.30;61.50
13052;DHT22;6592;47.484;9.726;2023-09-30T13:04:26;35.40;60.70
13052;DHT22;6592;47.484;9.726;2023-09-30T13:06:55;35.60;61.10
13052;DHT22;6592;47.484;9.726;2023-09-30T13:09:24;35.40;60.70
13052;DHT22;6592;47.484;9.726;2023-09-30T13:11:52;35.30;60.80
13052;DHT22;6592;47.484;9.726;2023-09-30T13:14:20;35.50;60.80
13052;DHT22;6592;47.484;9.726;2023-09-30T13:16:48;35.30;60.00
13052;DHT22;6592;47.484;9.726;2023-09-30T13:19:17;35.40;60.90
13052;DHT22;6592;47.484;9.726;2023-09-30T13:21:48;35.90;60.40
13052;DHT22;6592;47.484;9.726;2023-09-30T13:24:19;36.10;60.40
13052;DHT22;6592;47.484;9.726;2023-09-30T13:26:47;36.60;59.40
13052;DHT22;6592;47.484;9.726;2023-09-30T13:29:15;36.70;59.50
13052;DHT22;6592;47.484;9.726;2023-09-30T13:31:44;36.60;59.20
13052;DHT22;6592;47.484;9.726;2023-09-30T13:34:12;36.70;59.10
13052;DHT22;6592;47.484;9.726;2023-09-30T13:36:41;36.60;59.40
13052;DHT22;6592;47.484;9.726;2023-09-30T13:39:09;36.30;59.20
13052;DHT22;6592;47.484;9.726;2023-09-30T13:41:41;35.80;59.60
13052;DHT22;6592;47.484;9.726;2023-09-30T13:44:09;35.50;60.00
13052;DHT22;6592;47.484;9.726;2023-09-30T13:46:38;35.30;60.90
13052;DHT22;6592;47.484;9.726;2023-09-30T13:49:07;34.90;61.40
13052;DHT22;6592;47.484;9.726;2023-09-30T13:51:35;34.50;61.50
13052;DHT22;6592;47.484;9.726;2023-09-30T13:54:06;34.10;61.40
13052;DHT22;6592;47.484;9.726;2023-09-30T13:56:35;33.70;63.90
13052;DHT22;6592;47.484;9.726;2023-09-30T13:59:05;33.50;64.40
13052;DHT22;6592;47.484;9.726;2023-09-30T14:01:36;33.10;64.40
13052;DHT22;6592;47.484;9.726;2023-09-30T14:04:08;32.70;65.90
13052;DHT22;6592;47.484;9.726;2023-09-30T14:06:37;32.40;66.70
13052;DHT22;6592;47.484;9.726;2023-09-30T14:09:05;32.00;67.60
13052;DHT22;6592;47.484;9.726;2023-09-30T14:11:39;31.90;68.10
13052;DHT22;6592;47.484;9.726;2023-09-30T14:14:08;31.90;68.70
13052;DHT22;6592;47.484;9.726;2023-09-30T14:16:37;31.60;69.10
13052;DHT22;6592;47.484;9.726;2023-09-30T14:19:05;31.50;69.80
13052;DHT22;6592;47.484;9.726;2023-09-30T14:21:33;31.00;70.40
13052;DHT22;6592;47.484;9.726;2023-09-30T14:24:02;30.60;72.00
13052;DHT22;6592;47.484;9.726;2023-09-30T14:26:30;29.70;73.50
13052;DHT22;6592;47.484;9.726;2023-09-30T14:28:59;29.10;75.40
13052;DHT22;6592;47.484;9.726;2023-09-30T14:31:28;28.70;77.60
13052;DHT22;6592;47.484;9.726;2023-09-30T14:33:57;28.30;78.20
13052;DHT22;6592;47.484;9.726;2023-09-30T14:36:25;28.20;80.10
13052;DHT22;6592;47.484;9.726;2023-09-30T14:38:54;28.10;80.80
13052;DHT22;6592;47.484;9.726;2023-09-30T14:41:38;28.10;82.10
13052;DHT22;6592;47.484;9.726;2023-09-30T14:44:06;28.50;80.80
13052;DHT22;6592;47.484;9.726;2023-09-30T14:46:36;28.90;81.00
13052;DHT22;6592;47.484;9.726;2023-09-30T14:49:05;29.30;79.70
13052;DHT22;6592;47.484;9.726;2023-09-30T14:51:34;29.60;79.70
13052;DHT22;6592;47.484;9.726;2023-09-30T14:54:03;29.90;78.70
13052;DHT22;6592;47.484;9.726;2023-09-30T14:56:32;30.20;78.20
13052;DHT22;6592;47.484;9.726;2023-09-30T14:59:00;29.90;78.60
13052;DHT22;6592;47.484;9.726;2023-09-30T15:01:29;29.90;79.10
13052;DHT22;6592;47.484;9.726;2023-09-30T15:03:59;29.50;78.80
13052;DHT22;6592;47.484;9.726;2023-09-30T15:06:28;29.40;79.20
13052;DHT22;6592;47.484;9.726;2023-09-30T15:08:56;29.60;79.40
13052;DHT22;6592;47.484;9.726;2023-09-30T15:11:24;29.50;79.10
13052;DHT22;6592;47.484;9.726;2023-09-30T15:13:53;29.10;79.90
13052;DHT22;6592;47.484;9.726;2023-09-30T15:16:23;28.70;80.90
13052;DHT22;6592;47.484;9.726;2023-09-30T15:18:52;28.30;82.00
13052;DHT22;6592;47.484;9.726;2023-09-30T15:21:22;27.90;82.70
13052;DHT22;6592;47.484;9.726;2023-09-30T15:23:50;27.50;83.50
13052;DHT22;6592;47.484;9.726;2023-09-30T15:26:19;27.20;85.30
13052;DHT22;6592;47.484;9.726;2023-09-30T15:28:47;26.80;86.80
13052;DHT22;6592;47.484;9.726;2023-09-30T15:31:15;26.50;86.90
13052;DHT22;6592;47.484;9.726;2023-09-30T15:33:44;26.20;89.00
13052;DHT22;6592;47.484;9.726;2023-09-30T15:36:13;26.00;90.10
13052;DHT22;6592;47.484;9.726;2023-09-30T15:38:42;25.80;90.50
13052;DHT22;6592;47.484;9.726;2023-09-30T15:41:12;25.60;90.80
13052;DHT22;6592;47.484;9.726;2023-09-30T15:43:41;25.40;91.10
13052;DHT22;6592;47.484;9.726;2023-09-30T15:46:10;25.30;91.50
13052;DHT22;6592;47.484;9.726;2023-09-30T15:48:38;25.20;92.00
13052;DHT22;6592;47.484;9.726;2023-09-30T15:51:07;24.90;92.70
13052;DHT22;6592;47.484;9.726;2023-09-30T15:53:35;24.90;93.10
13052;DHT22;6592;47.484;9.726;2023-09-30T15:56:06;24.80;94.00
13052;DHT22;6592;47.484;9.726;2023-09-30T15:58:34;24.60;94.50
13052;DHT22;6592;47.484;9.726;2023-09-30T16:01:03;24.70;94.70
13052;DHT22;6592;47.484;9.726;2023-09-30T16:03:31;24.70;95.10